Pride Of Rotterdam — PBAJ — position and weather

sailwx.info

Track history (hours):
 
Tides and Currents Weather Stations Pressure Air Temp Water Temp Dewpoint Dewpoint Depression Visibility Wind Speed Wind Dir Waves Ship Positions

Pride Of Rotterdam

Operator: P&O Ferries

Last reported at 2020-Sep-29 07:00 UTC. Time now 2020-Sep-29 08:28 UTC.
Position N 53°44' W 000°17'.

Length 214 m; draft 6.1 m.

Type: Ship. MMSI: 244980000.

Date/timePositionNaut miles runAvg speedWind from/ knotsBaromVisibWave heightAir tempDewpointWater temp
2020-Sep-29 07:00N 53°44' W 000°17'8 3.8
2020-Sep-29 05:00N 53°38' W 000°09'917.1
2020-Sep-29 04:30N 53°35' E 000°04'7318.3
2020-Sep-29 00:30N 52°53' E 001°44'4618.6
2020-Sep-28 22:00N 52°27' E 002°47'3618.2
2020-Sep-28 20:00N 52°07' E 003°37'918.5
2020-Sep-28 19:30N 52°04' E 003°51'1212.5
2020-Sep-28 18:30N 51°57' E 004°08'0 0.0
2020-Sep-28 17:30N 51°57' E 004°08'0 0.0
2020-Sep-28 17:00N 51°57' E 004°08'0 0.0
2020-Sep-28 15:59N 51°57' E 004°08'0 0.0
2020-Sep-28 13:59N 51°57' E 004°08'0 0.0
2020-Sep-28 11:58N 51°57' E 004°08'0 0.0
2020-Sep-28 11:30N 51°57' E 004°08'0 0.0
2020-Sep-28 11:00N 51°57' E 004°08'0 0.0
2020-Sep-28 10:30N 51°57' E 004°08'0 0.0
2020-Sep-28 08:29N 51°57' E 004°08'0 0.0
2020-Sep-28 07:29N 51°57' E 004°08'5612.6
2020-Sep-28 03:00N 52°26' E 002°50'2717.9
2020-Sep-28 01:30N 52°44' E 002°16'918.9
2020-Sep-28 01:00N 52°51' E 002°06'9118.2
2020-Sep-27 20:00N 53°37' W 000°06'1010.0
2020-Sep-27 19:00N 53°44' W 000°17'0 0.0
2020-Sep-27 17:00N 53°44' W 000°17'0 0.0
2020-Sep-27 13:58N 53°44' W 000°17'0 0.0
2020-Sep-27 12:58N 53°44' W 000°17'0 0.0
2020-Sep-27 10:00N 53°44' W 000°17'0 0.0
2020-Sep-27 07:28N 53°44' W 000°17'0 0.0
2020-Sep-27 03:00N 53°44' W 000°17'0 0.0
2020-Sep-26 22:58N 53°44' W 000°17'0 0.0
2020-Sep-26 22:00N 53°44' W 000°17'4 1.4
2020-Sep-26 19:00N 53°41' W 000°13'7 1.8
2020-Sep-26 15:01N 53°37' W 000°03'11 2.8
2020-Sep-26 11:01N 53°44' W 000°17'0 0.0
2020-Sep-26 09:30N 53°44' W 000°17'0 0.0
2020-Sep-26 08:00N 53°44' W 000°17'4 7.3
2020-Sep-26 07:30N 53°41' W 000°14'612.5
2020-Sep-26 07:00N 53°37' W 000°06'714.7
2020-Sep-26 06:30N 53°34' E 000°06'10 1.0
2020-Sep-25 20:30N 53°38' W 000°10'7 7.2
2020-Sep-25 19:29N 53°44' W 000°17'0 0.0
2020-Sep-25 14:29N 53°44' W 000°17'0 0.0
2020-Sep-25 13:59N 53°44' W 000°17'0 0.0
2020-Sep-25 13:29N 53°44' W 000°17'0 0.0
2020-Sep-25 08:30N 53°44' W 000°17'0 0.0
2020-Sep-25 07:29N 53°44' W 000°17'0 0.0
2020-Sep-25 06:59N 53°44' W 000°17'0 0.0
2020-Sep-25 06:00N 53°44' W 000°17'2010.1
2020-Sep-25 04:00N 53°33' E 000°11'5315.1
2020-Sep-25 00:30N 53°07' E 001°28'12016.0
2020-Sep-24 17:00N 51°57' E 004°08'0 0.0
2020-Sep-24 15:59N 51°57' E 004°08'0 0.0
2020-Sep-24 15:29N 51°57' E 004°08'0 0.0
2020-Sep-24 13:59N 51°57' E 004°08'0 0.0
2020-Sep-24 07:29N 51°57' E 004°08'0 0.0
2020-Sep-24 06:30N 51°57' E 004°08'1313.2
2020-Sep-24 05:30N 52°02' E 003°48'4517.8
2020-Sep-24 02:58N 52°27' E 002°46'818.4
2020-Sep-24 02:30N 52°31' E 002°35'918.5
2020-Sep-24 02:00N 52°37' E 002°22'9320.5
2020-Sep-23 21:30N 53°31' E 000°17'2315.2
2020-Sep-23 20:00N 53°43' W 000°15'2 2.7
2020-Sep-23 19:24N 53°44' W 000°17'0 0.0
2020-Sep-23 19:21N 53°44' W 000°17'0 0.0
2020-Sep-23 19:00N 53°44' W 000°17'0 0.0
2020-Sep-23 14:58N 53°44' W 000°17'0 0.0
2020-Sep-23 13:58N 53°44' W 000°17'0 0.0
2020-Sep-23 12:00N 53°44' W 000°17'0 0.0
2020-Sep-23 11:00N 53°44' W 000°17'0 0.0
2020-Sep-23 10:30N 53°44' W 000°17'57 6.7
2020-Sep-23 02:00N 53°16' E 001°07'5217.5
2020-Sep-22 23:01N 52°44' E 002°16'8312.8
2020-Sep-22 16:30N 51°57' E 004°08'0 0.0
2020-Sep-22 16:00N 51°57' E 004°08'0 0.0
2020-Sep-22 15:30N 51°57' E 004°08'0 0.0
2020-Sep-22 11:59N 51°57' E 004°08'0 0.0
2020-Sep-22 10:58N 51°57' E 004°08'0 0.0
2020-Sep-22 09:58N 51°57' E 004°08'0 0.0
2020-Sep-22 09:30N 51°57' E 004°08'0 0.0
2020-Sep-22 08:00N 51°57' E 004°08'0 0.0
2020-Sep-22 07:30N 51°57' E 004°08'0 0.0
2020-Sep-22 06:59N 51°57' E 004°08'18 9.3
2020-Sep-22 05:01N 52°04' E 003°41'1817.7
2020-Sep-22 04:01N 52°14' E 003°16'917.3
2020-Sep-22 03:30N 52°20' E 003°06'8418.7
2020-Sep-21 23:00N 53°02' E 001°06'2020.2
2020-Sep-21 22:01N 53°16' E 000°41'1919.1
2020-Sep-21 21:02N 53°29' E 000°20'917.9
2020-Sep-21 20:31N 53°34' E 000°06'17 5.7
2020-Sep-21 17:28N 53°44' W 000°17'0 0.0
2020-Sep-21 16:00N 53°44' W 000°17'0 0.0
2020-Sep-21 13:59N 53°44' W 000°17'0 0.0
2020-Sep-21 10:28N 53°44' W 000°17'0 0.0
2020-Sep-21 08:30N 53°44' W 000°17'0 0.0
2020-Sep-21 07:29N 53°44' W 000°17'3 1.4
2020-Sep-21 05:30N 53°42' W 000°14'6416.0
2020-Sep-21 01:30N 53°11' E 001°20'1817.5
2020-Sep-21 00:30N 53°01' E 001°43'1716.7
2020-Sep-20 23:31N 52°51' E 002°06'7318.3
2020-Sep-20 19:30N 52°06' E 003°41'1019.4
2020-Sep-20 19:00N 52°03' E 003°55'10 9.8
2020-Sep-20 18:00N 51°57' E 004°08'0 0.0
2020-Sep-20 17:30N 51°57' E 004°08'0 0.0
2020-Sep-20 17:00N 51°57' E 004°08'0 0.0
2020-Sep-20 16:29N 51°57' E 004°08'0 0.0
2020-Sep-20 15:59N 51°57' E 004°08'0 0.0
2020-Sep-20 14:29N 51°57' E 004°08'0 0.0
2020-Sep-20 12:28N 51°57' E 004°08'0 0.0
2020-Sep-20 11:58N 51°57' E 004°08'0 0.0
2020-Sep-20 11:30N 51°57' E 004°08'0 0.0
2020-Sep-20 10:30N 51°57' E 004°08'0 0.0
2020-Sep-20 08:29N 51°57' E 004°08'0 0.0
2020-Sep-20 07:00N 51°57' E 004°08'9 9.2
2020-Sep-20 06:00N 52°01' E 003°54'9716.1
2020-Sep-20 00:00N 52°58' E 001°46'6418.3
2020-Sep-19 20:30N 53°32' E 000°15'2214.8
2020-Sep-19 19:00N 53°44' W 000°16'1 0.4
2020-Sep-19 17:29N 53°44' W 000°17'0 0.0
2020-Sep-19 16:28N 53°44' W 000°17'0 0.0
2020-Sep-19 14:00N 53°44' W 000°17'0 0.0
2020-Sep-19 10:59N 53°44' W 000°17'0 0.0
2020-Sep-19 09:58N 53°44' W 000°17'0 0.0
2020-Sep-19 07:30N 53°44' W 000°17'0 0.0
2020-Sep-19 07:00N 53°44' W 000°17'  
Track history (hours):
 
Tides and Currents Weather Stations Pressure Air Temp Water Temp Dewpoint Dewpoint Depression Visibility Wind Speed Wind Dir Waves Ship Positions

Pride Of Rotterdam

Operator: P&O Ferries

Last reported at 2020-Sep-29 07:00 UTC. Time now 2020-Sep-29 08:28 UTC.
Position N 53°44' W 000°17'.

Length 214 m; draft 6.1 m.

Type: Ship. MMSI: 244980000.

Date/timePositionNaut miles runAvg speedWind from/ knotsBaromVisibWave heightAir tempDewpointWater temp
2020-Sep-29 07:00N 53°44' W 000°17'8 3.8
2020-Sep-29 05:00N 53°38' W 000°09'917.1
2020-Sep-29 04:30N 53°35' E 000°04'7318.3
2020-Sep-29 00:30N 52°53' E 001°44'4618.6
2020-Sep-28 22:00N 52°27' E 002°47'3618.2
2020-Sep-28 20:00N 52°07' E 003°37'918.5
2020-Sep-28 19:30N 52°04' E 003°51'1212.5
2020-Sep-28 18:30N 51°57' E 004°08'0 0.0
2020-Sep-28 17:30N 51°57' E 004°08'0 0.0
2020-Sep-28 17:00N 51°57' E 004°08'0 0.0
2020-Sep-28 15:59N 51°57' E 004°08'0 0.0
2020-Sep-28 13:59N 51°57' E 004°08'0 0.0
2020-Sep-28 11:58N 51°57' E 004°08'0 0.0
2020-Sep-28 11:30N 51°57' E 004°08'0 0.0
2020-Sep-28 11:00N 51°57' E 004°08'0 0.0
2020-Sep-28 10:30N 51°57' E 004°08'0 0.0
2020-Sep-28 08:29N 51°57' E 004°08'0 0.0
2020-Sep-28 07:29N 51°57' E 004°08'5612.6
2020-Sep-28 03:00N 52°26' E 002°50'2717.9
2020-Sep-28 01:30N 52°44' E 002°16'918.9
2020-Sep-28 01:00N 52°51' E 002°06'9118.2
2020-Sep-27 20:00N 53°37' W 000°06'1010.0
2020-Sep-27 19:00N 53°44' W 000°17'0 0.0
2020-Sep-27 17:00N 53°44' W 000°17'0 0.0
2020-Sep-27 13:58N 53°44' W 000°17'0 0.0
2020-Sep-27 12:58N 53°44' W 000°17'0 0.0
2020-Sep-27 10:00N 53°44' W 000°17'0 0.0
2020-Sep-27 07:28N 53°44' W 000°17'0 0.0
2020-Sep-27 03:00N 53°44' W 000°17'0 0.0
2020-Sep-26 22:58N 53°44' W 000°17'0 0.0
2020-Sep-26 22:00N 53°44' W 000°17'4 1.4
2020-Sep-26 19:00N 53°41' W 000°13'7 1.8
2020-Sep-26 15:01N 53°37' W 000°03'11 2.8
2020-Sep-26 11:01N 53°44' W 000°17'0 0.0
2020-Sep-26 09:30N 53°44' W 000°17'0 0.0
2020-Sep-26 08:00N 53°44' W 000°17'4 7.3
2020-Sep-26 07:30N 53°41' W 000°14'612.5
2020-Sep-26 07:00N 53°37' W 000°06'714.7
2020-Sep-26 06:30N 53°34' E 000°06'10 1.0
2020-Sep-25 20:30N 53°38' W 000°10'7 7.2
2020-Sep-25 19:29N 53°44' W 000°17'0 0.0
2020-Sep-25 14:29N 53°44' W 000°17'0 0.0
2020-Sep-25 13:59N 53°44' W 000°17'0 0.0
2020-Sep-25 13:29N 53°44' W 000°17'0 0.0
2020-Sep-25 08:30N 53°44' W 000°17'0 0.0
2020-Sep-25 07:29N 53°44' W 000°17'0 0.0
2020-Sep-25 06:59N 53°44' W 000°17'0 0.0
2020-Sep-25 06:00N 53°44' W 000°17'2010.1
2020-Sep-25 04:00N 53°33' E 000°11'5315.1
2020-Sep-25 00:30N 53°07' E 001°28'12016.0
2020-Sep-24 17:00N 51°57' E 004°08'0 0.0
2020-Sep-24 15:59N 51°57' E 004°08'0 0.0
2020-Sep-24 15:29N 51°57' E 004°08'0 0.0
2020-Sep-24 13:59N 51°57' E 004°08'0 0.0
2020-Sep-24 07:29N 51°57' E 004°08'0 0.0
2020-Sep-24 06:30N 51°57' E 004°08'1313.2
2020-Sep-24 05:30N 52°02' E 003°48'4517.8
2020-Sep-24 02:58N 52°27' E 002°46'818.4
2020-Sep-24 02:30N 52°31' E 002°35'918.5
2020-Sep-24 02:00N 52°37' E 002°22'9320.5
2020-Sep-23 21:30N 53°31' E 000°17'2315.2
2020-Sep-23 20:00N 53°43' W 000°15'2 2.7
2020-Sep-23 19:24N 53°44' W 000°17'0 0.0
2020-Sep-23 19:21N 53°44' W 000°17'0 0.0
2020-Sep-23 19:00N 53°44' W 000°17'0 0.0
2020-Sep-23 14:58N 53°44' W 000°17'0 0.0
2020-Sep-23 13:58N 53°44' W 000°17'0 0.0
2020-Sep-23 12:00N 53°44' W 000°17'0 0.0
2020-Sep-23 11:00N 53°44' W 000°17'0 0.0
2020-Sep-23 10:30N 53°44' W 000°17'57 6.7
2020-Sep-23 02:00N 53°16' E 001°07'5217.5
2020-Sep-22 23:01N 52°44' E 002°16'8312.8
2020-Sep-22 16:30N 51°57' E 004°08'0 0.0
2020-Sep-22 16:00N 51°57' E 004°08'0 0.0
2020-Sep-22 15:30N 51°57' E 004°08'0 0.0
2020-Sep-22 11:59N 51°57' E 004°08'0 0.0
2020-Sep-22 10:58N 51°57' E 004°08'0 0.0
2020-Sep-22 09:58N 51°57' E 004°08'0 0.0
2020-Sep-22 09:30N 51°57' E 004°08'0 0.0
2020-Sep-22 08:00N 51°57' E 004°08'0 0.0
2020-Sep-22 07:30N 51°57' E 004°08'0 0.0
2020-Sep-22 06:59N 51°57' E 004°08'18 9.3
2020-Sep-22 05:01N 52°04' E 003°41'1817.7
2020-Sep-22 04:01N 52°14' E 003°16'917.3
2020-Sep-22 03:30N 52°20' E 003°06'8418.7
2020-Sep-21 23:00N 53°02' E 001°06'2020.2
2020-Sep-21 22:01N 53°16' E 000°41'1919.1
2020-Sep-21 21:02N 53°29' E 000°20'917.9
2020-Sep-21 20:31N 53°34' E 000°06'17 5.7
2020-Sep-21 17:28N 53°44' W 000°17'0 0.0
2020-Sep-21 16:00N 53°44' W 000°17'0 0.0
2020-Sep-21 13:59N 53°44' W 000°17'0 0.0
2020-Sep-21 10:28N 53°44' W 000°17'0 0.0
2020-Sep-21 08:30N 53°44' W 000°17'0 0.0
2020-Sep-21 07:29N 53°44' W 000°17'3 1.4
2020-Sep-21 05:30N 53°42' W 000°14'6416.0
2020-Sep-21 01:30N 53°11' E 001°20'1817.5
2020-Sep-21 00:30N 53°01' E 001°43'1716.7
2020-Sep-20 23:31N 52°51' E 002°06'7318.3
2020-Sep-20 19:30N 52°06' E 003°41'1019.4
2020-Sep-20 19:00N 52°03' E 003°55'10 9.8
2020-Sep-20 18:00N 51°57' E 004°08'0 0.0
2020-Sep-20 17:30N 51°57' E 004°08'0 0.0
2020-Sep-20 17:00N 51°57' E 004°08'0 0.0
2020-Sep-20 16:29N 51°57' E 004°08'0 0.0
2020-Sep-20 15:59N 51°57' E 004°08'0 0.0
2020-Sep-20 14:29N 51°57' E 004°08'0 0.0
2020-Sep-20 12:28N 51°57' E 004°08'0 0.0
2020-Sep-20 11:58N 51°57' E 004°08'0 0.0
2020-Sep-20 11:30N 51°57' E 004°08'0 0.0
2020-Sep-20 10:30N 51°57' E 004°08'0 0.0
2020-Sep-20 08:29N 51°57' E 004°08'0 0.0
2020-Sep-20 07:00N 51°57' E 004°08'9 9.2
2020-Sep-20 06:00N 52°01' E 003°54'9716.1
2020-Sep-20 00:00N 52°58' E 001°46'6418.3
2020-Sep-19 20:30N 53°32' E 000°15'2214.8
2020-Sep-19 19:00N 53°44' W 000°16'1 0.4
2020-Sep-19 17:29N 53°44' W 000°17'0 0.0
2020-Sep-19 16:28N 53°44' W 000°17'0 0.0
2020-Sep-19 14:00N 53°44' W 000°17'0 0.0
2020-Sep-19 10:59N 53°44' W 000°17'0 0.0
2020-Sep-19 09:58N 53°44' W 000°17'0 0.0
2020-Sep-19 07:30N 53°44' W 000°17'0 0.0
2020-Sep-19 07:00N 53°44' W 000°17'  

Dump ship's entire track history